Time;durP1;ratioP1;P1;durP2;ratioP2;P2;SDS_P1;SDS_P2;PMS_P1;PMS_P2;Temp;Humidity;BMP_temperature;BMP_pressure;BME280_temperature;BME280_humidity;BME280_pressure;Samples;Min_cycle;Max_cycle;Signal;HPM_P1;HPM_P2
2023/12/11 00:01:13;;;;;;;38.40;6.50;;;;;;;;;;4816963;29;20435;-69
2023/12/11 00:03:39;;;;;;;33.95;5.75;;;;;;;;;;4833242;29;20059;-70
2023/12/11 00:06:05;;;;;;;37.90;7.43;;;;;;;;;;4832772;29;20404;-70
2023/12/11 00:08:33;;;;;;;39.28;8.10;;;;;;;;;;4816779;29;20050;-69
2023/12/11 00:10:59;;;;;;;46.00;6.53;;;;;;;;;;4815852;29;20428;-69
2023/12/11 00:13:25;;;;;;;53.17;7.82;;;;;;;;;;4816649;29;20487;-70
2023/12/11 00:15:51;;;;;;;45.78;8.45;;;;;;;;;;4816221;29;20525;-69
2023/12/11 00:18:17;;;;;;;46.92;6.68;;;;;;;;;;4811913;29;20052;-70
2023/12/11 00:20:43;;;;;;;42.83;7.38;;;;;;;;;;4815733;29;20133;-69
2023/12/11 00:23:09;;;;;;;38.55;6.50;;;;;;;;;;4816003;29;20520;-69
2023/12/11 00:25:37;;;;;;;40.10;6.22;;;;;;;;;;4816094;29;20572;-69
2023/12/11 00:28:03;;;;;;;31.85;5.18;;;;;;;;;;4816153;29;20476;-69
2023/12/11 00:30:29;;;;;;;42.63;6.35;;;;;;;;;;4815898;29;20062;-70
2023/12/11 00:32:55;;;;;;;37.38;7.07;;;;;;;;;;4816105;29;20132;-70
2023/12/11 00:35:21;;;;;;;36.67;6.15;;;;;;;;;;4815555;29;20523;-70
2023/12/11 00:37:47;;;;;;;37.00;6.93;;;;;;;;;;4815992;29;20497;-69
2023/12/11 00:40:13;;;;;;;41.22;7.47;;;;;;;;;;4815942;29;20054;-70
2023/12/11 00:42:39;;;;;;;38.30;6.75;;;;;;;;;;4819941;29;20060;-69
2023/12/11 00:45:06;;;;;;;37.00;6.15;;;;;;;;;;4816320;29;20132;-68
2023/12/11 00:47:32;;;;;;;48.60;8.63;;;;;;;;;;4827038;29;20060;-69
2023/12/11 00:49:58;;;;;;;35.50;5.68;;;;;;;;;;4816202;29;20137;-68
2023/12/11 00:52:24;;;;;;;31.58;5.55;;;;;;;;;;4831174;29;20162;-69
2023/12/11 00:54:50;;;;;;;31.70;6.57;;;;;;;;;;4832415;29;20079;-70
2023/12/11 00:57:16;;;;;;;42.80;6.85;;;;;;;;;;4830828;29;20557;-68
2023/12/11 00:59:42;;;;;;;38.85;6.75;;;;;;;;;;4831009;29;20050;-69
2023/12/11 01:02:08;;;;;;;31.27;5.70;;;;;;;;;;4832237;29;20501;-69
2023/12/11 01:04:34;;;;;;;34.72;5.45;;;;;;;;;;4830985;29;20050;-69
2023/12/11 01:07:00;;;;;;;49.40;6.38;;;;;;;;;;4830957;29;20064;-69
2023/12/11 01:09:26;;;;;;;39.47;7.93;;;;;;;;;;4830475;29;20056;-68
2023/12/11 01:18:31;;;;;;;25.88;5.05;;;;;;;;;;4831105;29;20191;-69
2023/12/11 01:20:57;;;;;;;43.17;6.00;;;;;;;;;;4830718;29;20056;-70
2023/12/11 01:23:23;;;;;;;26.13;5.93;;;;;;;;;;4831102;29;20045;-68
2023/12/11 01:25:49;;;;;;;31.85;6.05;;;;;;;;;;4830283;29;20049;-69
2023/12/11 01:28:15;;;;;;;31.45;5.25;;;;;;;;;;4830502;29;20042;-69
2023/12/11 01:30:41;;;;;;;28.65;5.72;;;;;;;;;;4830943;29;20062;-68
2023/12/11 01:33:07;;;;;;;28.10;6.90;;;;;;;;;;4830493;29;20046;-70
2023/12/11 01:35:34;;;;;;;26.95;5.40;;;;;;;;;;4831360;29;20129;-69
2023/12/11 01:38:00;;;;;;;35.58;5.70;;;;;;;;;;4830471;29;20041;-68
2023/12/11 01:40:26;;;;;;;35.33;5.72;;;;;;;;;;4830436;29;20054;-69
2023/12/11 01:42:52;;;;;;;29.38;5.72;;;;;;;;;;4832079;29;20054;-70
2023/12/11 01:45:18;;;;;;;33.25;4.72;;;;;;;;;;4832308;29;20050;-70
2023/12/11 01:47:44;;;;;;;34.90;5.93;;;;;;;;;;4833549;29;20118;-69
2023/12/11 01:50:10;;;;;;;31.52;7.18;;;;;;;;;;4833952;29;20133;-69
2023/12/11 01:52:37;;;;;;;39.08;5.47;;;;;;;;;;4834917;29;20089;-69
2023/12/11 01:55:04;;;;;;;39.53;6.65;;;;;;;;;;4833960;29;20476;-70
2023/12/11 01:57:30;;;;;;;50.60;7.65;;;;;;;;;;4834087;29;20042;-70
2023/12/11 01:59:56;;;;;;;29.98;7.18;;;;;;;;;;4833803;29;20133;-70
2023/12/11 02:02:22;;;;;;;38.92;6.68;;;;;;;;;;4833498;29;20049;-69
2023/12/11 02:04:49;;;;;;;44.28;6.43;;;;;;;;;;4834093;29;20046;-70
2023/12/11 02:10:19;;;;;;;36.30;6.25;;;;;;;;;;4827441;29;20057;-69
2023/12/11 02:12:45;;;;;;;41.92;6.82;;;;;;;;;;4833702;29;20046;-68
2023/12/11 02:15:11;;;;;;;40.22;6.68;;;;;;;;;;4833399;29;20045;-70
2023/12/11 02:17:37;;;;;;;36.70;7.28;;;;;;;;;;4834840;29;20556;-70
2023/12/11 02:20:05;;;;;;;47.03;7.97;;;;;;;;;;4834923;29;20060;-70
2023/12/11 02:22:31;;;;;;;42.67;6.95;;;;;;;;;;4833155;29;20519;-69
2023/12/11 02:25:00;;;;;;;40.00;6.25;;;;;;;;;;4833527;29;20054;-69
2023/12/11 02:27:26;;;;;;;30.02;6.85;;;;;;;;;;4834602;29;20054;-69
2023/12/11 02:29:55;;;;;;;45.35;7.03;;;;;;;;;;4835016;29;20089;-69
2023/12/11 02:32:21;;;;;;;35.42;5.93;;;;;;;;;;4833607;29;20053;-69
2023/12/11 02:34:47;;;;;;;43.25;6.68;;;;;;;;;;4833480;29;20061;-69
2023/12/11 02:37:13;;;;;;;41.22;7.35;;;;;;;;;;4833325;29;20057;-70
2023/12/11 02:39:40;;;;;;;43.45;8.90;;;;;;;;;;4833233;29;20053;-69
2023/12/11 02:42:06;;;;;;;47.05;6.60;;;;;;;;;;4833457;29;20141;-68
2023/12/11 02:44:31;;;;;;;46.20;7.53;;;9.40;99.90;;;;;;4833197;29;20049;-69
2023/12/11 02:46:57;;;;;;;42.05;7.70;;;;;;;;;;4832894;29;20521;-69
2023/12/11 02:49:23;;;;;;;43.95;7.38;;;;;;;;;;4832817;29;20932;-69
2023/12/11 02:51:49;;;;;;;55.40;8.95;;;;;;;;;;4832790;29;20050;-70
2023/12/11 02:57:31;;;;;;;43.88;7.68;;;;;;;;;;4832733;29;20062;-69
2023/12/11 02:59:57;;;;;;;43.35;8.20;;;;;;;;;;4832798;29;20082;-69
2023/12/11 03:02:23;;;;;;;48.03;8.93;;;;;;;;;;4832483;29;20137;-69
2023/12/11 03:04:49;;;;;;;40.15;6.88;;;;;;;;;;4833726;29;20050;-70
2023/12/11 03:07:15;;;;;;;43.30;9.38;;;;;;;;;;4832679;29;20109;-69
2023/12/11 03:09:41;;;;;;;38.05;6.95;;;;;;;;;;4832179;29;20165;-69
2023/12/11 03:12:07;;;;;;;43.63;7.18;;;;;;;;;;4834086;29;20137;-69
2023/12/11 03:14:33;;;;;;;46.65;9.57;;;;;;;;;;4833936;29;20046;-69
2023/12/11 03:16:59;;;;;;;48.15;7.80;;;;;;;;;;4832632;29;20132;-69
2023/12/11 03:27:12;;;;;;;52.38;8.75;;;;;;;;;;5118564;24;20061;-69
2023/12/11 03:29:39;;;;;;;46.75;7.43;;;;;;;;;;4831368;29;20069;-69
2023/12/11 03:32:05;;;;;;;59.47;9.23;;;;;;;;;;4836507;29;20094;-70
2023/12/11 03:34:31;;;;;;;52.13;7.30;;;;;;;;;;4825563;29;20576;-69
2023/12/11 03:36:57;;;;;;;61.60;8.38;;;;;;;;;;4827635;29;20060;-68
2023/12/11 03:39:25;;;;;;;40.53;8.48;;;;;;;;;;4825679;29;20076;-69
2023/12/11 03:41:51;;;;;;;51.17;6.35;;;;;;;;;;4846038;29;20053;-69
2023/12/11 03:44:17;;;;;;;48.53;7.75;;;;;;;;;;4827723;29;20092;-69
2023/12/11 03:46:43;;;;;;;46.50;7.50;;;;;;;;;;4830027;29;20071;-69
2023/12/11 03:49:09;;;;;;;42.40;8.25;;;;;;;;;;4823013;29;20054;-69
2023/12/11 03:51:35;;;;;;;46.00;8.15;;;;;;;;;;4821231;29;20050;-69
2023/12/11 03:54:01;;;;;;;56.83;8.75;;;;;;;;;;4812205;29;20073;-69
2023/12/11 03:56:28;;;;;;;41.60;7.50;;;;;;;;;;4823390;29;20049;-69
2023/12/11 03:58:54;;;;;;;42.63;6.93;;;;;;;;;;4837042;29;20060;-69
2023/12/11 04:01:20;;;;;;;40.53;8.02;;;;;;;;;;4825676;29;20046;-69
2023/12/11 04:03:46;;;;;;;47.22;8.23;;;;;;;;;;4829002;29;20821;-70
2023/12/11 04:06:12;;;;;;;37.03;6.40;;;;;;;;;;4841338;29;20838;-70
2023/12/11 04:08:41;;;;;;;48.67;7.95;;;;;;;;;;4825639;29;20050;-70
2023/12/11 04:11:08;;;;;;;44.63;6.85;;;;;;;;;;4835029;29;20418;-69
2023/12/11 04:13:34;;;;;;;47.35;7.38;;;;;;;;;;4829472;29;20058;-70
2023/12/11 04:16:00;;;;;;;48.13;7.55;;;;;;;;;;4825814;29;20508;-69
2023/12/11 04:18:26;;;;;;;49.30;7.25;;;;;;;;;;4830588;29;20053;-69
2023/12/11 04:20:52;;;;;;;41.22;6.95;;;;;;;;;;4850682;29;20033;-69
2023/12/11 04:23:18;;;;;;;40.90;7.20;;;;;;;;;;4824252;29;20705;-69
2023/12/11 04:25:44;;;;;;;42.38;5.88;;;;;;;;;;4822236;29;20060;-70
2023/12/11 04:28:10;;;;;;;41.80;7.07;;;;;;;;;;4828246;29;20053;-69
2023/12/11 04:30:36;;;;;;;31.27;6.63;;;;;;;;;;4842492;29;20060;-70
2023/12/11 04:33:02;;;;;;;37.42;6.10;;;;;;;;;;4827064;29;20437;-70
2023/12/11 04:35:28;;;;;;;40.83;5.47;;;;;;;;;;4824138;29;20049;-70
2023/12/11 04:37:54;;;;;;;43.83;7.38;;;;;;;;;;4802247;29;20053;-69
2023/12/11 04:40:20;;;;;;;42.58;7.07;;;;;;;;;;4826228;29;20784;-69
2023/12/11 04:42:46;;;;;;;30.85;5.75;;;;;;;;;;4843735;29;20061;-69
2023/12/11 04:45:12;;;;;;;30.13;5.68;;;;;;;;;;4826931;29;20052;-69
2023/12/11 04:47:38;;;;;;;40.45;7.72;;;;;;;;;;4822887;29;20072;-69
2023/12/11 04:50:05;;;;;;;43.38;6.88;;;;;;;;;;4831779;29;20050;-69
2023/12/11 04:52:31;;;;;;;38.80;7.35;;;;;;;;;;4826811;29;20065;-69
2023/12/11 04:54:57;;;;;;;39.47;6.38;;;;;;;;;;4820423;29;20060;-69
2023/12/11 04:57:23;;;;;;;39.50;6.57;;;;;;;;;;4824087;29;20055;-70
2023/12/11 04:59:49;;;;;;;43.53;7.75;;;;;;;;;;4821112;29;20057;-70
2023/12/11 05:02:15;;;;;;;46.17;7.50;;;;;;;;;;4825929;29;20607;-70
2023/12/11 05:04:41;;;;;;;35.72;5.03;;;;;;;;;;4826094;29;20866;-69
2023/12/11 05:07:07;;;;;;;35.88;7.85;;;;;;;;;;4813971;29;20054;-70
2023/12/11 05:09:33;;;;;;;31.52;5.60;;;;;;;;;;4842715;29;20062;-70
2023/12/11 05:11:59;;;;;;;26.38;4.85;;;;;;;;;;4823793;29;20141;-69
2023/12/11 05:14:25;;;;;;;35.60;5.72;;;;;;;;;;4825317;29;20065;-70
2023/12/11 05:16:51;;;;;;;30.08;5.45;;;;;;;;;;4825444;29;20064;-70
2023/12/11 05:19:17;;;;;;;35.83;6.55;;;9.80;99.90;;;;;;4830018;29;20077;-70
2023/12/11 05:21:44;;;;;;;32.28;5.45;;;;;;;;;;4828412;29;20136;-70
2023/12/11 05:24:10;;;;;;;38.88;5.55;;;;;;;;;;4827473;29;20097;-70
2023/12/11 05:26:36;;;;;;;28.67;4.95;;;9.70;99.90;;;;;;4830213;29;20493;-70
2023/12/11 05:29:03;;;;;;;28.42;5.35;;;;;;;;;;4845485;29;20065;-70
2023/12/11 05:31:29;;;;;;;24.48;5.93;;;;;;;;;;4827965;29;20085;-69
2023/12/11 05:33:55;;;;;;;27.70;6.43;;;;;;;;;;4830318;29;20053;-68
2023/12/11 05:36:21;;;;;;;22.40;4.07;;;9.70;99.90;;;;;;4825758;29;20056;-70
2023/12/11 05:38:47;;;;;;;32.50;6.28;;;;;;;;;;4820587;29;20069;-69
2023/12/11 05:41:13;;;;;;;30.48;6.07;;;;;;;;;;4832819;29;20049;-70
2023/12/11 05:43:59;;;;;;;33.88;5.55;;;;;;;;;;4822956;29;21157;-70
2023/12/11 05:46:25;;;;;;;33.70;5.10;;;;;;;;;;4825161;29;20049;-70
2023/12/11 05:48:51;;;;;;;32.13;6.97;;;;;;;;;;4831258;29;20050;-69
2023/12/11 05:51:17;;;;;;;23.85;5.07;;;;;;;;;;4825932;29;20069;-70
2023/12/11 05:53:43;;;;;;;28.15;5.72;;;;;;;;;;4830555;29;20112;-70
2023/12/11 05:56:09;;;;;;;31.25;5.10;;;9.60;99.90;;;;;;4812491;29;20115;-70
2023/12/11 05:58:35;;;;;;;30.15;5.90;;;;;;;;;;4822773;29;20140;-70
2023/12/11 06:01:02;;;;;;;31.95;6.95;;;;;;;;;;4827705;29;20129;-70
2023/12/11 06:03:28;;;;;;;28.55;5.93;;;;;;;;;;4829747;29;20084;-70
2023/12/11 06:05:58;;;;;;;33.58;5.07;;;;;;;;;;4829044;29;20093;-70
2023/12/11 06:08:24;;;;;;;31.05;5.57;;;;;;;;;;4812619;29;20065;-70
2023/12/11 06:10:51;;;;;;;30.23;5.22;;;;;;;;;;4829859;29;20093;-70
2023/12/11 06:13:17;;;;;;;33.65;5.47;;;;;;;;;;4824152;29;20050;-70
2023/12/11 06:15:43;;;;;;;39.20;5.28;;;;;;;;;;4825307;29;20065;-69
2023/12/11 06:18:09;;;;;;;35.60;5.30;;;;;;;;;;4845828;29;20045;-70
2023/12/11 06:20:35;;;;;;;39.55;5.35;;;;;;;;;;4827610;29;20050;-70
2023/12/11 06:23:01;;;;;;;29.73;7.38;;;;;;;;;;4828487;29;20061;-69
2023/12/11 06:25:27;;;;;;;25.08;4.65;;;9.50;99.90;;;;;;4827872;29;20089;-70
2023/12/11 06:27:53;;;;;;;26.63;6.05;;;;;;;;;;4843489;29;20118;-69
2023/12/11 06:30:19;;;;;;;30.10;5.22;;;;;;;;;;4823046;29;20053;-70
2023/12/11 06:32:45;;;;;;;26.65;4.38;;;;;;;;;;4828529;29;20088;-70
2023/12/11 06:35:11;;;;;;;27.63;5.25;;;;;;;;;;4825900;29;20053;-70
2023/12/11 06:37:37;;;;;;;27.30;5.57;;;;;;;;;;4819700;29;20057;-69
2023/12/11 06:40:04;;;;;;;22.30;4.93;;;;;;;;;;4827430;29;20720;-69
2023/12/11 06:42:34;;;;;;;27.55;4.43;;;;;;;;;;4837117;29;20057;-70
2023/12/11 06:45:00;;;;;;;26.73;5.45;;;;;;;;;;4822409;29;20077;-70
2023/12/11 06:47:26;;;;;;;26.75;3.92;;;;;;;;;;4823399;29;20042;-70
2023/12/11 06:49:52;;;;;;;23.42;4.10;;;;;;;;;;4827289;29;20043;-70
2023/12/11 06:52:18;;;;;;;26.73;3.85;;;;;;;;;;4840086;29;20046;-70
2023/12/11 06:54:44;;;;;;;27.17;4.45;;;;;;;;;;4820716;29;20118;-70
2023/12/11 06:57:11;;;;;;;21.90;3.85;;;;;;;;;;4818765;29;20046;-72
2023/12/11 06:59:37;;;;;;;23.00;3.95;;;;;;;;;;4817513;29;20065;-72
2023/12/11 07:02:04;;;;;;;32.17;4.68;;;;;;;;;;4819948;29;20057;-72
2023/12/11 07:04:30;;;;;;;30.42;4.78;;;;;;;;;;4835497;29;20049;-72
2023/12/11 07:06:56;;;;;;;26.10;3.90;;;;;;;;;;4822469;29;20165;-71
2023/12/11 07:09:22;;;;;;;26.17;3.70;;;;;;;;;;4819902;29;20086;-72
2023/12/11 07:11:48;;;;;;;19.33;3.63;;;;;;;;;;4823259;29;20057;-72
2023/12/11 07:14:14;;;;;;;20.83;3.38;;;;;;;;;;4830441;29;20070;-72
2023/12/11 07:16:40;;;;;;;25.13;4.43;;;9.50;99.90;;;;;;4823742;29;20053;-73
2023/12/11 07:19:07;;;;;;;22.23;4.03;;;;;;;;;;4822160;29;20591;-73
2023/12/11 07:21:33;;;;;;;23.45;3.92;;;;;;;;;;4827026;29;20058;-73
2023/12/11 07:23:59;;;;;;;23.65;3.75;;;;;;;;;;4823519;29;20069;-73
2023/12/11 07:26:25;;;;;;;25.92;3.50;;;;;;;;;;4841350;29;20056;-73
2023/12/11 07:28:52;;;;;;;15.63;3.22;;;;;;;;;;4822657;29;20073;-73
2023/12/11 07:31:18;;;;;;;16.10;3.60;;;;;;;;;;4827341;29;20050;-72
2023/12/11 07:33:44;;;;;;;24.70;4.00;;;;;;;;;;4808916;29;20057;-72
2023/12/11 07:36:10;;;;;;;17.40;3.90;;;;;;;;;;4843674;29;20057;-73
2023/12/11 07:38:36;;;;;;;21.55;4.00;;;;;;;;;;4829553;29;20397;-72
2023/12/11 07:41:03;;;;;;;15.95;3.33;;;;;;;;;;4827136;29;20058;-71
2023/12/11 07:43:29;;;;;;;16.85;3.30;;;;;;;;;;4822024;29;20064;-71
2023/12/11 07:45:55;;;;;;;15.77;2.88;;;;;;;;;;4826062;29;20045;-73
2023/12/11 07:48:21;;;;;;;17.25;3.42;;;;;;;;;;4824219;29;20052;-72
2023/12/11 07:50:47;;;;;;;18.13;3.50;;;;;;;;;;4828227;29;20069;-71
2023/12/11 07:53:14;;;;;;;17.63;4.25;;;;;;;;;;4825105;29;20050;-71
2023/12/11 07:55:40;;;;;;;17.10;3.13;;;;;;;;;;4823086;29;20054;-72
2023/12/11 07:58:06;;;;;;;15.02;3.47;;;;;;;;;;4821895;29;20053;-73
2023/12/11 08:00:32;;;;;;;17.08;3.47;;;;;;;;;;4809578;29;20050;-73
2023/12/11 08:02:58;;;;;;;19.27;3.33;;;;;;;;;;4836697;29;20060;-74
2023/12/11 08:05:24;;;;;;;16.13;3.58;;;;;;;;;;4820240;29;20069;-73
2023/12/11 08:07:50;;;;;;;19.25;4.05;;;;;;;;;;4824106;29;20069;-73
2023/12/11 08:10:16;;;;;;;20.52;3.28;;;;;;;;;;4824402;29;20041;-74
2023/12/11 08:12:42;;;;;;;22.92;5.35;;;;;;;;;;4800108;29;20088;-73
2023/12/11 08:15:09;;;;;;;21.95;4.45;;;;;;;;;;4807309;29;20501;-72
2023/12/11 08:17:35;;;;;;;18.30;3.58;;;;;;;;;;4827465;29;20053;-72
2023/12/11 08:20:01;;;;;;;17.33;3.45;;;;;;;;;;4815099;29;20042;-73
2023/12/11 08:22:27;;;;;;;16.77;3.72;;;;;;;;;;4823513;29;20565;-71
2023/12/11 08:24:54;;;;;;;13.02;3.40;;;;;;;;;;4831013;29;20125;-71
2023/12/11 08:27:21;;;;;;;18.80;4.00;;;;;;;;;;4823995;29;20057;-71
2023/12/11 08:29:47;;;;;;;21.23;3.90;;;;;;;;;;4843662;29;20069;-71
2023/12/11 08:32:13;;;;;;;19.42;3.90;;;;;;;;;;4822514;29;20098;-70
2023/12/11 08:34:39;;;;;;;18.48;4.03;;;;;;;;;;4839139;29;20061;-71
2023/12/11 08:37:05;;;;;;;15.55;3.25;;;;;;;;;;4814603;29;20049;-70
2023/12/11 08:39:31;;;;;;;14.18;4.07;;;;;;;;;;4835580;29;20046;-71
2023/12/11 08:41:57;;;;;;;8.75;3.08;;;;;;;;;;4813775;29;20564;-71
2023/12/11 08:44:23;;;;;;;14.23;3.22;;;;;;;;;;4822882;29;20044;-71
2023/12/11 08:46:49;;;;;;;20.20;3.58;;;;;;;;;;4828278;29;20053;-71
2023/12/11 08:49:15;;;;;;;19.25;3.80;;;;;;;;;;4822325;29;20105;-70
2023/12/11 08:51:42;;;;;;;13.73;3.55;;;;;;;;;;4824754;29;20053;-71
2023/12/11 08:54:08;;;;;;;20.95;4.28;;;;;;;;;;4838668;29;20124;-72
2023/12/11 08:56:34;;;;;;;22.98;3.97;;;;;;;;;;4829346;29;20102;-71
2023/12/11 08:59:00;;;;;;;13.43;3.67;;;;;;;;;;4831226;29;20054;-71
2023/12/11 09:01:26;;;;;;;20.35;4.38;;;;;;;;;;4812509;29;20417;-69
2023/12/11 09:03:52;;;;;;;14.98;3.78;;;;;;;;;;4831441;29;20054;-71
2023/12/11 09:06:18;;;;;;;16.50;3.42;;;;;;;;;;4827436;29;20045;-72
2023/12/11 09:08:44;;;;;;;23.05;3.75;;;;;;;;;;4832303;29;20056;-71
2023/12/11 09:11:10;;;;;;;24.23;3.75;;;;;;;;;;4830081;29;20053;-70
2023/12/11 09:13:36;;;;;;;18.00;3.50;;;;;;;;;;4827714;29;20085;-69
2023/12/11 09:16:03;;;;;;;17.50;3.55;;;;;;;;;;4829281;29;20073;-73
2023/12/11 09:18:29;;;;;;;14.65;3.50;;;;;;;;;;4826038;29;20103;-72
2023/12/11 09:20:55;;;;;;;12.90;2.63;;;;;;;;;;4828282;29;20045;-71
2023/12/11 09:23:21;;;;;;;15.52;2.97;;;;;;;;;;4847106;29;20045;-72
2023/12/11 09:25:47;;;;;;;14.55;3.38;;;9.80;99.90;;;;;;4832197;29;20052;-73
2023/12/11 09:28:14;;;;;;;9.35;3.15;;;;;;;;;;4818026;29;20514;-70
2023/12/11 09:30:40;;;;;;;9.65;2.85;;;;;;;;;;4831294;29;20078;-73
2023/12/11 09:33:06;;;;;;;12.75;2.30;;;;;;;;;;4826912;29;20041;-71
2023/12/11 09:35:32;;;;;;;15.25;3.03;;;;;;;;;;4816673;29;20413;-72
2023/12/11 09:37:58;;;;;;;17.25;3.22;;;;;;;;;;4834675;29;20049;-73
2023/12/11 09:40:24;;;;;;;15.20;2.97;;;;;;;;;;4834077;29;20568;-72
2023/12/11 09:42:51;;;;;;;17.30;3.92;;;;;;;;;;4831868;29;20629;-72
2023/12/11 09:45:19;;;;;;;15.70;2.75;;;;;;;;;;4832547;29;20144;-72
2023/12/11 09:47:55;;;;;;;15.10;3.58;;;;;;;;;;4826169;29;20054;-72
2023/12/11 09:50:21;;;;;;;15.93;3.17;;;;;;;;;;4824200;29;20081;-73
2023/12/11 09:52:49;;;;;;;21.05;3.33;;;;;;;;;;4828723;29;20053;-71
2023/12/11 09:55:15;;;;;;;20.45;4.05;;;;;;;;;;4832056;29;20339;-73
2023/12/11 09:57:42;;;;;;;20.02;3.58;;;;;;;;;;4833616;29;20401;-72
2023/12/11 10:00:09;;;;;;;12.43;3.22;;;;;;;;;;4844419;29;20054;-72
2023/12/11 10:02:38;;;;;;;16.48;3.03;;;;;;;;;;4833874;29;20067;-72
2023/12/11 10:05:06;;;;;;;18.23;3.08;;;;;;;;;;4827685;29;20053;-73
2023/12/11 10:07:32;;;;;;;13.38;3.17;;;;;;;;;;4825290;29;20046;-72
2023/12/11 10:09:59;;;;;;;19.95;3.00;;;;;;;;;;4829268;29;20528;-73
2023/12/11 10:12:25;;;;;;;18.17;3.63;;;;;;;;;;4832057;29;20060;-72
2023/12/11 10:15:01;;;;;;;20.85;3.53;;;;;;;;;;4823848;29;20049;-73
2023/12/11 10:17:27;;;;;;;22.60;3.83;;;;;;;;;;4828647;29;20102;-72
2023/12/11 10:19:54;;;;;;;22.95;3.33;;;;;;;;;;4838138;29;20052;-74
2023/12/11 10:22:30;;;;;;;18.48;3.42;;;;;;;;;;4826210;29;20148;-73
2023/12/11 10:24:56;;;;;;;20.48;3.55;;;;;;;;;;4825848;29;20058;-74
2023/12/11 10:27:23;;;;;;;16.33;2.95;;;;;;;;;;4827188;29;20880;-73
2023/12/11 10:30:05;;;;;;;22.13;4.30;;;;;;;;;;4827727;29;20057;-74
2023/12/11 10:32:31;;;;;;;16.42;3.78;;;;;;;;;;4817019;29;20065;-73
2023/12/11 10:34:57;;;;;;;19.10;3.28;;;;;;;;;;4827364;29;20049;-73
2023/12/11 10:37:29;;;;;;;20.60;4.72;;;;;;;;;;4827236;29;20572;-74
2023/12/11 10:39:55;;;;;;;15.13;3.30;;;;;;;;;;4843657;29;20779;-74
2023/12/11 10:42:21;;;;;;;17.90;3.60;;;;;;;;;;4841090;29;20045;-74
2023/12/11 11:15:43;;;;;;;19.33;3.35;;;;;;;;;;5030193;28;20327;-72
2023/12/11 11:18:11;;;;;;;16.90;3.70;;;;;;;;;;4999946;28;20045;-71
2023/12/11 11:20:38;;;;;;;16.70;4.05;;;;;;;;;;4993475;28;20049;-72
2023/12/11 11:23:16;;;;;;;24.85;3.45;;;;;;;;;;4996290;28;20077;-71
2023/12/11 11:25:45;;;;;;;15.68;3.85;;;;;;;;;;5003124;28;20042;-71
2023/12/11 11:28:30;;;;;;;14.05;3.75;;;;;;;;;;5004657;28;20081;-71
2023/12/11 11:30:55;;;;;;;17.40;4.65;;;10.00;99.90;;;;;;5005332;28;20148;-71
2023/12/11 11:33:22;;;;;;;25.00;4.00;;;;;;;;;;5004943;28;20591;-72
2023/12/11 11:35:52;;;;;;;23.63;4.55;;;9.90;99.90;;;;;;5022258;28;20057;-71
2023/12/11 11:38:41;;;;;;;19.92;4.70;;;;;;;;;;5004735;28;20050;-72
2023/12/11 11:41:20;;;;;;;15.27;4.03;;;;;;;;;;5005747;28;20053;-72
2023/12/11 11:43:55;;;;;;;17.92;4.45;;;;;;;;;;5002156;28;20069;-70
2023/12/11 11:46:21;;;;;;;13.07;3.57;;;;;;;;;;5005075;28;20045;-71
2023/12/11 11:48:47;;;;;;;21.77;3.90;;;;;;;;;;5004443;28;20104;-71
2023/12/11 11:51:14;;;;;;;22.27;4.20;;;;;;;;;;5004228;28;20791;-71
2023/12/11 11:53:40;;;;;;;12.88;3.05;;;;;;;;;;5003497;28;20079;-71
2023/12/11 11:56:07;;;;;;;11.63;3.47;;;;;;;;;;5004091;28;20049;-71
2023/12/11 11:58:33;;;;;;;18.55;3.33;;;;;;;;;;5003654;28;20053;-71
2023/12/11 12:01:05;;;;;;;14.30;3.75;;;;;;;;;;5003974;28;20508;-71
2023/12/11 12:03:44;;;;;;;16.60;3.13;;;;;;;;;;4997992;28;20072;-71
2023/12/11 12:06:10;;;;;;;17.08;4.45;;;;;;;;;;4991477;28;20141;-71
2023/12/11 12:08:42;;;;;;;9.95;1.95;;;;;;;;;;4997567;28;20176;-71
2023/12/11 12:11:08;;;;;;;6.65;2.28;;;;;;;;;;5001945;28;20045;-71
2023/12/11 12:13:35;;;;;;;6.95;2.78;;;;;;;;;;5001537;28;20053;-72
2023/12/11 12:16:02;;;;;;;11.95;2.55;;;;;;;;;;4986884;28;20738;-70
2023/12/11 12:18:28;;;;;;;9.57;2.28;;;;;;;;;;5005825;28;20400;-71
2023/12/11 12:21:02;;;;;;;15.13;2.22;;;;;;;;;;4977541;28;20783;-71
2023/12/11 12:23:28;;;;;;;7.78;2.13;;;;;;;;;;4988704;28;20394;-71
2023/12/11 12:25:57;;;;;;;9.93;2.20;;;10.40;99.90;;;;;;4988015;28;20049;-71
2023/12/11 12:28:23;;;;;;;8.13;2.00;;;;;;;;;;4988641;28;20125;-71
2023/12/11 12:30:50;;;;;;;7.85;1.90;;;;;;;;;;4988929;28;20046;-71
2023/12/11 12:33:18;;;;;;;7.15;1.67;;;;;;;;;;4987863;28;20064;-70
2023/12/11 12:35:45;;;;;;;5.47;2.10;;;;;;;;;;4990520;28;20050;-71
2023/12/11 12:38:11;;;;;;;10.32;2.25;;;;;;;;;;4987954;28;20092;-71
2023/12/11 12:40:38;;;;;;;11.15;2.00;;;;;;;;;;4988484;28;20072;-71
2023/12/11 12:43:13;;;;;;;7.53;1.95;;;10.10;99.90;;;;;;4989020;28;20408;-70
2023/12/11 12:45:39;;;;;;;8.18;2.47;;;;;;;;;;4985579;28;20041;-71
2023/12/11 12:48:08;;;;;;;7.25;1.95;;;;;;;;;;4987998;28;20056;-71
2023/12/11 12:50:33;;;;;;;8.77;2.35;;;10.10;99.90;;;;;;5011523;28;20041;-71
2023/12/11 12:53:18;;;;;;;6.63;1.80;;;;;;;;;;4988281;28;20064;-71
2023/12/11 12:55:44;;;;;;;6.60;1.88;;;;;;;;;;5005681;28;20175;-71
2023/12/11 12:58:11;;;;;;;6.90;2.03;;;;;;;;;;4988472;28;20638;-70
2023/12/11 13:00:39;;;;;;;6.28;1.65;;;;;;;;;;4987699;28;20045;-71
2023/12/11 13:03:09;;;;;;;10.23;1.88;;;;;;;;;;5007694;28;20052;-71
2023/12/11 13:05:38;;;;;;;7.28;1.38;;;;;;;;;;4998020;28;20037;-71
2023/12/11 13:08:05;;;;;;;8.43;1.85;;;;;;;;;;4979401;28;20056;-70
2023/12/11 13:10:31;;;;;;;7.60;1.95;;;;;;;;;;4988456;28;20080;-70
2023/12/11 13:12:57;;;;;;;9.98;1.80;;;;;;;;;;4982235;28;20073;-71
2023/12/11 13:15:22;;;;;;;7.25;2.00;;;9.90;99.90;;;;;;4997990;28;20145;-71
2023/12/11 13:17:50;;;;;;;10.90;1.83;;;;;;;;;;4987071;28;20480;-71
2023/12/11 13:20:16;;;;;;;10.05;1.60;;;;;;;;;;4987711;28;20505;-70
2023/12/11 13:22:42;;;;;;;6.55;1.60;;;;;;;;;;4990601;28;20046;-73
2023/12/11 13:25:08;;;;;;;7.07;1.90;;;;;;;;;;4984440;28;20049;-71
2023/12/11 13:27:34;;;;;;;6.45;1.45;;;;;;;;;;5003736;28;20096;-72
2023/12/11 13:30:02;;;;;;;6.47;1.65;;;;;;;;;;4990648;28;20819;-72
2023/12/11 13:32:28;;;;;;;8.82;1.70;;;;;;;;;;4986657;28;20049;-72
2023/12/11 13:34:54;;;;;;;5.47;1.80;;;;;;;;;;4986703;28;20045;-72
2023/12/11 13:37:20;;;;;;;5.43;1.70;;;;;;;;;;4987317;28;20129;-72
2023/12/11 13:39:46;;;;;;;7.25;1.40;;;;;;;;;;4986922;28;20049;-71
2023/12/11 13:42:12;;;;;;;5.82;1.55;;;;;;;;;;4987025;28;20520;-71
2023/12/11 13:44:38;;;;;;;6.82;1.98;;;;;;;;;;4986465;28;20054;-72
2023/12/11 13:47:04;;;;;;;7.45;1.83;;;10.20;99.90;;;;;;4990709;28;20567;-72
2023/12/11 13:49:32;;;;;;;6.72;1.48;;;;;;;;;;4988475;28;20120;-72
2023/12/11 13:51:58;;;;;;;6.18;1.48;;;;;;;;;;5004337;28;20097;-72
2023/12/11 13:54:24;;;;;;;10.25;1.73;;;;;;;;;;4995468;28;20643;-72
2023/12/11 13:56:50;;;;;;;5.45;1.58;;;;;;;;;;4986655;28;20057;-71
2023/12/11 13:59:16;;;;;;;11.05;1.92;;;;;;;;;;4987244;28;20138;-71
2023/12/11 14:01:42;;;;;;;6.70;2.03;;;;;;;;;;4981610;28;20840;-71
2023/12/11 14:04:08;;;;;;;4.38;1.40;;;9.80;99.90;;;;;;4986520;28;20049;-72
2023/12/11 14:06:34;;;;;;;3.95;1.77;;;9.70;99.90;;;;;;4986934;28;20041;-73
2023/12/11 14:09:01;;;;;;;4.00;1.50;;;;;;;;;;5004007;28;20042;-72
2023/12/11 14:11:28;;;;;;;8.60;1.90;;;;;;;;;;4986659;28;20816;-71
2023/12/11 14:13:54;;;;;;;5.70;1.60;;;;;;;;;;4983775;28;20093;-72
2023/12/11 14:16:20;;;;;;;13.15;1.90;;;;;;;;;;4986011;28;20049;-73
2023/12/11 14:18:47;;;;;;;6.13;2.17;;;;;;;;;;4982950;28;20045;-73
2023/12/11 14:21:13;;;;;;;7.43;1.73;;;;;;;;;;4983649;28;20053;-71
2023/12/11 14:23:39;;;;;;;3.95;1.63;;;;;;;;;;5002970;28;20064;-71
2023/12/11 14:26:05;;;;;;;7.93;1.90;;;;;;;;;;4985680;28;20042;-71
2023/12/11 14:28:31;;;;;;;8.23;1.58;;;;;;;;;;5003121;28;20057;-71
2023/12/11 14:30:57;;;;;;;8.00;1.63;;;;;;;;;;4988447;28;20046;-71
2023/12/11 14:33:23;;;;;;;8.23;1.95;;;;;;;;;;4985725;28;20619;-71
2023/12/11 14:35:48;;;;;;;5.32;1.58;;;9.20;99.90;;;;;;4985554;28;20242;-71
2023/12/11 14:38:16;;;;;;;5.03;1.33;;;9.20;99.90;;;;;;4987469;28;20046;-71
2023/12/11 14:40:42;;;;;;;6.15;1.60;;;;;;;;;;4986403;28;20867;-71
2023/12/11 14:43:08;;;;;;;5.55;1.52;;;;;;;;;;4979807;28;20172;-70
2023/12/11 14:45:34;;;;;;;7.15;1.88;;;;;;;;;;4982002;28;20042;-70
2023/12/11 14:47:59;;;;;;;7.88;2.17;;;9.10;99.90;;;;;;4985658;28;20033;-71
2023/12/11 14:50:25;;;;;;;7.15;1.75;;;8.90;99.90;;;;;;4983419;28;20045;-72
2023/12/11 14:52:52;;;;;;;5.82;1.80;;;;;;;;;;4982432;28;20433;-71
2023/12/11 14:55:20;;;;;;;6.22;1.60;;;;;;;;;;4984090;28;20041;-71
2023/12/11 14:57:46;;;;;;;8.07;2.30;;;;;;;;;;4980014;28;20117;-71
2023/12/11 15:00:12;;;;;;;13.05;2.15;;;;;;;;;;5011808;28;20050;-71
2023/12/11 15:02:38;;;;;;;7.85;2.35;;;;;;;;;;4986293;28;20053;-70
2023/12/11 15:05:05;;;;;;;7.80;1.92;;;;;;;;;;4988065;28;20129;-70
2023/12/11 15:07:31;;;;;;;4.45;1.55;;;;;;;;;;4960829;28;20066;-71
2023/12/11 15:09:57;;;;;;;9.80;2.00;;;;;;;;;;5003205;28;20614;-71
2023/12/11 15:12:24;;;;;;;6.00;1.42;;;;;;;;;;4988849;28;20054;-70
2023/12/11 15:14:50;;;;;;;7.32;1.95;;;;;;;;;;4965420;28;20097;-71